createdAt,value
2023-04-26T00:00:35.499Z,100827.09
2023-04-26T00:03:02.438Z,100825.09
2023-04-26T00:05:30.010Z,100822.94
2023-04-26T00:07:56.890Z,100816.16
2023-04-26T00:10:23.630Z,100819.19
2023-04-26T00:12:50.653Z,100825.28
2023-04-26T00:15:17.493Z,100830.66
2023-04-26T00:17:44.599Z,100818.28
2023-04-26T00:20:13.541Z,100821.47
2023-04-26T00:22:40.914Z,100828.53
2023-04-26T00:25:07.955Z,100825.13
2023-04-26T00:27:34.691Z,100822.25
2023-04-26T00:30:01.438Z,100829.06
2023-04-26T00:32:28.095Z,100821.47
2023-04-26T00:34:54.746Z,100824.25
2023-04-26T00:37:22.015Z,100825.84
2023-04-26T00:39:49.324Z,100828.28
2023-04-26T00:42:16.254Z,100819.38
2023-04-26T00:44:43.692Z,100822.69
2023-04-26T00:47:10.692Z,100828.13
2023-04-26T00:49:37.507Z,100830.44
2023-04-26T00:52:04.413Z,100831.91
2023-04-26T00:54:31.568Z,100829.88
2023-04-26T00:56:58.215Z,100826.66
2023-04-26T00:59:26.424Z,100835.78
2023-04-26T01:01:53.350Z,100835.50
2023-04-26T01:04:20.417Z,100834.97
2023-04-26T01:06:47.879Z,100827.81
2023-04-26T01:09:15.713Z,100834.28
2023-04-26T01:11:44.237Z,100832.84
2023-04-26T01:14:11.810Z,100839.25
2023-04-26T01:16:39.526Z,100842.06
2023-04-26T01:19:13.827Z,100849.63
2023-04-26T01:21:41.649Z,100846.34
2023-04-26T01:24:12.932Z,100847.66
2023-04-26T01:26:44.452Z,100849.75
2023-04-26T01:29:18.709Z,100855.34
2023-04-26T01:31:46.824Z,100850.63
2023-04-26T01:34:14.266Z,100859.09
2023-04-26T01:36:41.298Z,100849.97
2023-04-26T01:39:09.629Z,100856.31
2023-04-26T01:41:36.837Z,100861.53
2023-04-26T01:44:03.964Z,100863.09
2023-04-26T01:46:30.842Z,100868.97
2023-04-26T01:48:57.832Z,100858.72
2023-04-26T01:51:24.445Z,100857.47
2023-04-26T01:53:51.576Z,100859.84
2023-04-26T01:56:19.281Z,100864.28
2023-04-26T01:58:46.174Z,100864.63
2023-04-26T02:01:13.111Z,100861.59
2023-04-26T02:03:39.795Z,100865.44
2023-04-26T02:06:06.527Z,100863.69
2023-04-26T02:08:33.580Z,100864.84
2023-04-26T02:11:00.640Z,100858.00
2023-04-26T02:13:27.361Z,100864.88
2023-04-26T02:15:54.096Z,100850.47
2023-04-26T02:18:22.620Z,100863.13
2023-04-26T02:20:49.462Z,100865.44
2023-04-26T02:23:16.733Z,100862.34
2023-04-26T02:25:46.878Z,100850.34
2023-04-26T02:28:13.828Z,100859.72
2023-04-26T02:30:40.774Z,100860.28
2023-04-26T02:33:07.722Z,100853.34
2023-04-26T02:35:36.354Z,100833.03
2023-04-26T02:38:03.854Z,100847.81
2023-04-26T02:40:30.653Z,100845.59
2023-04-26T02:42:57.685Z,100840.16
2023-04-26T02:45:24.588Z,100843.28
2023-04-26T02:47:51.666Z,100852.78
2023-04-26T02:50:18.480Z,100860.31
2023-04-26T02:52:45.313Z,100858.84
2023-04-26T02:55:12.088Z,100852.75
2023-04-26T02:57:39.657Z,100841.53
2023-04-26T03:00:08.060Z,100849.25
2023-04-26T03:02:35.200Z,100855.00
2023-04-26T03:05:02.445Z,100843.59
2023-04-26T03:07:29.137Z,100849.91
2023-04-26T03:09:55.739Z,100856.19
2023-04-26T03:12:22.394Z,100851.84
2023-04-26T03:14:49.468Z,100852.22
2023-04-26T03:17:16.607Z,100858.84
2023-04-26T03:19:43.343Z,100856.34
2023-04-26T03:22:11.743Z,100862.81
2023-04-26T03:24:38.318Z,100856.06
2023-04-26T03:27:05.122Z,100864.03
2023-04-26T03:29:32.167Z,100847.69
2023-04-26T03:31:58.801Z,100867.06
2023-04-26T03:34:25.569Z,100860.56
2023-04-26T03:36:52.165Z,100860.06
2023-04-26T03:39:18.897Z,100867.97
2023-04-26T03:41:46.146Z,100871.75
2023-04-26T03:44:13.231Z,100868.91
2023-04-26T03:46:39.872Z,100864.41
2023-04-26T03:49:06.652Z,100875.00
2023-04-26T03:51:33.515Z,100881.81
2023-04-26T03:54:00.154Z,100866.84
2023-04-26T03:56:26.748Z,100876.09
2023-04-26T03:58:53.943Z,100871.16
2023-04-26T04:01:20.780Z,100872.31
2023-04-26T04:03:48.696Z,100873.59
2023-04-26T04:06:16.814Z,100879.44
2023-04-26T04:08:43.429Z,100882.31
2023-04-26T04:11:10.058Z,100880.66
2023-04-26T04:13:36.693Z,100889.22
2023-04-26T04:16:04.731Z,100893.91
2023-04-26T04:18:31.372Z,100892.84
2023-04-26T04:20:58.158Z,100889.47
2023-04-26T04:23:24.757Z,100895.78
2023-04-26T04:25:52.358Z,100889.69
2023-04-26T04:28:19.012Z,100895.78
2023-04-26T04:30:46.532Z,100895.78
2023-04-26T04:33:13.128Z,100890.66
2023-04-26T04:35:41.542Z,100904.88
2023-04-26T04:38:08.280Z,100904.81
2023-04-26T04:40:34.937Z,100895.97
2023-04-26T04:43:02.153Z,100901.78
2023-04-26T04:45:28.893Z,100908.06
2023-04-26T04:47:56.779Z,100908.16
2023-04-26T04:50:24.332Z,100914.66
2023-04-26T04:52:50.980Z,100908.09
2023-04-26T04:55:17.712Z,100909.09
2023-04-26T04:57:44.445Z,100912.63
2023-04-26T05:00:14.805Z,100916.44
2023-04-26T05:02:41.868Z,100922.78
2023-04-26T05:05:09.751Z,100928.69
2023-04-26T05:07:36.548Z,100922.72
2023-04-26T05:10:04.604Z,100930.41
2023-04-26T05:12:31.621Z,100929.94
2023-04-26T05:14:58.237Z,100935.81
2023-04-26T05:17:24.954Z,100936.97
2023-04-26T05:19:51.535Z,100943.53
2023-04-26T05:22:18.853Z,100943.72
2023-04-26T05:24:46.980Z,100959.09
2023-04-26T05:27:14.348Z,100946.75
2023-04-26T05:29:41.541Z,100941.72
2023-04-26T05:32:08.393Z,100948.56
2023-04-26T05:34:35.514Z,100950.19
2023-04-26T05:37:02.192Z,100950.06
2023-04-26T05:39:28.846Z,100963.94
2023-04-26T05:41:55.710Z,100956.16
2023-04-26T05:44:22.303Z,100958.25
2023-04-26T05:46:48.879Z,100967.16
2023-04-26T05:49:16.054Z,100960.69
2023-04-26T05:51:42.670Z,100967.38
2023-04-26T05:54:09.240Z,100956.19
2023-04-26T05:56:35.849Z,100953.47
2023-04-26T05:59:02.505Z,100962.16
2023-04-26T06:01:29.119Z,100976.78
2023-04-26T06:03:59.054Z,100976.59
2023-04-26T06:06:28.360Z,100979.97
2023-04-26T06:08:55.554Z,100980.44
2023-04-26T06:11:22.397Z,100977.06
2023-04-26T06:13:48.981Z,100987.75
2023-04-26T06:16:16.418Z,100980.31
2023-04-26T06:18:43.642Z,100986.13
2023-04-26T06:21:10.388Z,100985.34
2023-04-26T06:23:37.021Z,100996.19
2023-04-26T06:26:03.634Z,100991.47
2023-04-26T06:28:30.240Z,100988.91
2023-04-26T06:30:56.889Z,100993.59
2023-04-26T06:33:23.572Z,100995.16
2023-04-26T06:35:50.177Z,100986.38
2023-04-26T06:38:16.789Z,100990.94
2023-04-26T06:40:43.412Z,100983.34
2023-04-26T06:43:09.975Z,100989.94
2023-04-26T06:45:37.037Z,100989.28
2023-04-26T06:48:04.896Z,100990.41
2023-04-26T06:50:31.773Z,100990.75
2023-04-26T06:52:58.418Z,101002.09
2023-04-26T06:55:25.150Z,100999.75
2023-04-26T06:57:51.929Z,100992.69
2023-04-26T07:00:19.125Z,100990.19
2023-04-26T07:02:46.089Z,100987.41
2023-04-26T07:05:13.334Z,101005.13
2023-04-26T07:07:40.039Z,100996.34
2023-04-26T07:10:08.301Z,100991.44
2023-04-26T07:12:35.226Z,101008.94
2023-04-26T07:15:01.994Z,101005.91
2023-04-26T07:17:28.637Z,101005.75
2023-04-26T07:19:56.279Z,101004.03
2023-04-26T07:22:22.996Z,101009.78
2023-04-26T07:24:49.985Z,101010.09
2023-04-26T07:27:16.629Z,101012.09
2023-04-26T07:29:43.264Z,101007.63
2023-04-26T07:32:09.987Z,101004.72
2023-04-26T07:34:36.995Z,101015.66
2023-04-26T07:37:04.537Z,101025.06
2023-04-26T07:39:31.221Z,101015.59
2023-04-26T07:41:57.865Z,101026.88
2023-04-26T07:44:24.505Z,101019.69
2023-04-26T07:46:51.657Z,101025.09
2023-04-26T07:49:18.285Z,101031.88
2023-04-26T07:51:45.685Z,101036.13
2023-04-26T07:54:12.341Z,101041.34
2023-04-26T07:56:38.989Z,101035.63
2023-04-26T07:59:05.576Z,101026.44
2023-04-26T08:01:32.323Z,101029.97
2023-04-26T08:04:01.697Z,101022.78
2023-04-26T08:06:29.348Z,101042.03
2023-04-26T08:08:55.955Z,101025.66
2023-04-26T08:11:22.687Z,101037.78
2023-04-26T08:13:49.339Z,101033.44
2023-04-26T08:16:16.080Z,101035.88
2023-04-26T08:18:45.385Z,101039.66
2023-04-26T08:21:13.474Z,101039.59
2023-04-26T08:23:40.083Z,101056.28
2023-04-26T08:26:07.336Z,101047.84
2023-04-26T08:28:33.941Z,101053.91
2023-04-26T08:31:00.577Z,101042.44
2023-04-26T08:33:27.219Z,101039.91
2023-04-26T08:35:53.862Z,101038.16
2023-04-26T08:38:22.811Z,101052.09
2023-04-26T08:40:51.410Z,101039.66
2023-04-26T08:43:18.018Z,101044.91
2023-04-26T08:45:49.219Z,101046.53
2023-04-26T08:48:18.186Z,101050.06
2023-04-26T08:50:46.719Z,101039.44
2023-04-26T08:53:20.347Z,101045.41
2023-04-26T08:55:50.714Z,101052.38
2023-04-26T08:58:20.416Z,101043.13
2023-04-26T09:00:47.191Z,101047.03
2023-04-26T09:03:14.196Z,101051.06
2023-04-26T09:05:44.398Z,101052.88
2023-04-26T09:08:18.318Z,101028.78
2023-04-26T09:10:45.542Z,101052.31
2023-04-26T09:13:12.473Z,101044.66
2023-04-26T09:15:39.669Z,101049.94
2023-04-26T09:18:18.825Z,101053.34
2023-04-26T09:20:46.277Z,101042.75
2023-04-26T09:23:13.042Z,101041.50
2023-04-26T09:25:39.917Z,101049.09
2023-04-26T09:28:23.174Z,101038.22
2023-04-26T09:30:49.874Z,101041.00
2023-04-26T09:33:16.825Z,101033.16
2023-04-26T09:35:44.200Z,101037.75
2023-04-26T09:38:14.766Z,101038.50
2023-04-26T09:40:49.878Z,101032.91
2023-04-26T09:43:17.700Z,101034.91
2023-04-26T09:45:56.265Z,101034.88
2023-04-26T09:48:26.260Z,101039.94
2023-04-26T09:50:55.688Z,101029.88
2023-04-26T09:53:42.738Z,101040.13
2023-04-26T09:56:14.471Z,101049.69
2023-04-26T09:58:58.338Z,101023.69
2023-04-26T10:01:28.331Z,101031.28
2023-04-26T10:03:57.761Z,101037.31
2023-04-26T10:06:25.223Z,101042.72
2023-04-26T10:08:52.098Z,101041.81
2023-04-26T10:11:19.118Z,101041.81
2023-04-26T10:13:57.864Z,101026.63
2023-04-26T10:16:30.196Z,101036.72
2023-04-26T10:18:56.995Z,101028.16
2023-04-26T10:21:31.629Z,101036.44
2023-04-26T10:24:00.363Z,101032.19
2023-04-26T10:26:50.418Z,101033.44
2023-04-26T10:29:17.398Z,101038.97
2023-04-26T10:32:02.840Z,101040.56
2023-04-26T10:34:33.758Z,101032.84
2023-04-26T10:37:26.921Z,101033.88
2023-04-26T10:40:27.437Z,101027.75
2023-04-26T10:43:09.990Z,101032.47
2023-04-26T10:45:37.736Z,101040.50
2023-04-26T10:48:22.489Z,101031.13
2023-04-26T10:51:09.700Z,101051.19
2023-04-26T10:53:45.926Z,101042.66
2023-04-26T10:56:32.622Z,101038.88
2023-04-26T10:59:33.355Z,101044.53
2023-04-26T11:02:01.052Z,101043.78
2023-04-26T11:04:51.272Z,101033.97
2023-04-26T11:07:37.401Z,101046.25
2023-04-26T11:10:07.991Z,101058.44
2023-04-26T11:12:34.672Z,101033.53
2023-04-26T11:15:01.275Z,101047.38
2023-04-26T11:17:28.033Z,101041.56
2023-04-26T11:19:54.906Z,101028.31
2023-04-26T11:22:24.660Z,101035.28
2023-04-26T11:24:51.780Z,101039.03
2023-04-26T11:27:18.527Z,101038.13
2023-04-26T11:29:45.127Z,101039.44
2023-04-26T11:32:13.391Z,101049.31
2023-04-26T11:34:40.885Z,101053.97
2023-04-26T11:37:08.229Z,101056.66
2023-04-26T11:39:36.330Z,101052.53
2023-04-26T11:42:10.814Z,101062.00
2023-04-26T11:44:41.610Z,101049.69
2023-04-26T11:47:09.464Z,101050.94
2023-04-26T11:49:37.900Z,101058.03
2023-04-26T11:52:06.188Z,101050.47
2023-04-26T11:54:34.625Z,101059.50
2023-04-26T11:57:02.955Z,101052.41
2023-04-26T11:59:30.962Z,101056.75
2023-04-26T12:01:58.876Z,101058.84
2023-04-26T12:04:31.932Z,101052.75
2023-04-26T12:06:58.723Z,101056.66
2023-04-26T12:09:28.356Z,101054.19
2023-04-26T12:11:59.884Z,101061.16
2023-04-26T12:14:40.565Z,101060.59
2023-04-26T12:17:08.271Z,101065.38
2023-04-26T12:19:39.571Z,101064.31
2023-04-26T12:22:07.673Z,101069.16
2023-04-26T12:24:36.999Z,101052.59
2023-04-26T12:27:06.681Z,101062.03
2023-04-26T12:29:33.811Z,101077.25
2023-04-26T12:32:01.531Z,101077.00
2023-04-26T12:34:28.496Z,101072.38
2023-04-26T12:36:55.996Z,101069.66
2023-04-26T12:39:22.977Z,101070.84
2023-04-26T12:41:50.055Z,101074.56
2023-04-26T12:44:17.282Z,101064.28
2023-04-26T12:46:46.139Z,101072.09
2023-04-26T12:49:14.226Z,101061.38
2023-04-26T12:51:40.896Z,101067.44
2023-04-26T12:54:07.838Z,101068.94
2023-04-26T12:56:35.327Z,101063.19
2023-04-26T12:59:02.175Z,101070.56
2023-04-26T13:01:28.975Z,101057.94
2023-04-26T13:03:56.876Z,101055.53
2023-04-26T13:06:24.158Z,101067.53
2023-04-26T13:08:50.936Z,101063.28
2023-04-26T13:11:18.292Z,101072.41
2023-04-26T13:13:45.293Z,101065.28
2023-04-26T13:16:13.250Z,101073.19
2023-04-26T13:18:41.215Z,101061.94
2023-04-26T13:21:08.193Z,101068.19
2023-04-26T13:23:34.909Z,101066.75
2023-04-26T13:26:01.775Z,101064.66
2023-04-26T13:28:28.678Z,101064.03
2023-04-26T13:30:56.136Z,101051.16
2023-04-26T13:33:23.289Z,101051.38
2023-04-26T13:35:50.062Z,101056.81
2023-04-26T13:38:17.605Z,101057.75
2023-04-26T13:40:45.001Z,101061.31
2023-04-26T13:43:11.636Z,101070.13
2023-04-26T13:45:38.888Z,101066.53
2023-04-26T13:48:06.015Z,101065.63
2023-04-26T13:50:32.812Z,101074.19
2023-04-26T13:53:00.283Z,101079.06
2023-04-26T13:55:27.015Z,101063.94
2023-04-26T13:57:53.918Z,101079.31
2023-04-26T14:00:21.172Z,101077.50
2023-04-26T14:02:48.594Z,101074.53
2023-04-26T14:05:17.781Z,101088.78
2023-04-26T14:07:44.793Z,101093.88
2023-04-26T14:10:12.538Z,101083.53
2023-04-26T14:12:39.905Z,101092.06
2023-04-26T14:15:07.453Z,101092.50
2023-04-26T14:17:34.227Z,101097.31
2023-04-26T14:20:01.624Z,101087.03
2023-04-26T14:22:28.347Z,101088.53
2023-04-26T14:24:55.498Z,101079.72
2023-04-26T14:27:22.298Z,101086.22
2023-04-26T14:29:48.925Z,101096.28
2023-04-26T14:32:15.650Z,101091.03
2023-04-26T14:34:43.024Z,101094.06
2023-04-26T14:37:10.487Z,101087.03
2023-04-26T14:39:37.368Z,101075.19
2023-04-26T14:42:04.381Z,101100.06
2023-04-26T14:44:31.085Z,101086.53
2023-04-26T14:46:57.794Z,101096.84
2023-04-26T14:49:24.504Z,101094.22
2023-04-26T14:51:53.473Z,101097.66
2023-04-26T14:54:21.201Z,101100.22
2023-04-26T14:56:48.852Z,101098.91
2023-04-26T14:59:16.318Z,101103.44
2023-04-26T15:01:43.187Z,101098.06
2023-04-26T15:04:10.275Z,101099.78
2023-04-26T15:06:37.373Z,101095.56
2023-04-26T15:09:04.691Z,101086.00
2023-04-26T15:11:31.677Z,101087.53
2023-04-26T15:13:58.426Z,101096.28
2023-04-26T15:16:25.185Z,101088.25
2023-04-26T15:18:52.038Z,101086.81
2023-04-26T15:21:22.233Z,101084.19
2023-04-26T15:23:48.842Z,101077.66
2023-04-26T15:26:15.520Z,101077.28
2023-04-26T15:28:42.366Z,101084.94
2023-04-26T15:31:10.305Z,101085.53
2023-04-26T15:33:37.062Z,101095.78
2023-04-26T15:36:03.970Z,101094.41
2023-04-26T15:38:31.107Z,101095.09
2023-04-26T15:40:57.760Z,101091.41
2023-04-26T15:43:24.390Z,101091.09
2023-04-26T15:45:51.661Z,101097.59
2023-04-26T15:48:18.440Z,101101.25
2023-04-26T15:50:45.622Z,101090.22
2023-04-26T15:53:12.316Z,101096.97
2023-04-26T15:55:39.081Z,101096.97
2023-04-26T15:58:05.911Z,101098.03
2023-04-26T16:00:34.026Z,101096.03
2023-04-26T16:03:04.478Z,101099.88
2023-04-26T16:05:32.887Z,101095.25
2023-04-26T16:08:03.858Z,101098.41
2023-04-26T16:10:30.580Z,101097.31
2023-04-26T16:12:57.352Z,101091.66
2023-04-26T16:15:26.508Z,101107.63
2023-04-26T16:17:53.184Z,101101.50
2023-04-26T16:20:22.023Z,101101.28
2023-04-26T16:22:49.967Z,101105.66
2023-04-26T16:25:17.456Z,101104.72
2023-04-26T16:27:44.667Z,101097.75
2023-04-26T16:30:11.597Z,101100.22
2023-04-26T16:32:38.249Z,101095.75
2023-04-26T16:35:05.589Z,101093.19
2023-04-26T16:37:32.292Z,101090.44
2023-04-26T16:39:59.119Z,101082.84
2023-04-26T16:42:26.448Z,101090.91
2023-04-26T16:44:55.879Z,101088.19
2023-04-26T16:47:22.557Z,101080.88
2023-04-26T16:49:49.725Z,101087.16
2023-04-26T16:52:24.855Z,101094.03
2023-04-26T16:54:51.568Z,101092.38
2023-04-26T16:57:18.957Z,101092.44
2023-04-26T16:59:46.408Z,101097.34
2023-04-26T17:02:13.954Z,101094.09
2023-04-26T17:04:41.395Z,101101.00
2023-04-26T17:07:08.325Z,101109.16
2023-04-26T17:09:35.970Z,101104.69
2023-04-26T17:12:04.445Z,101103.81
2023-04-26T17:14:32.452Z,101097.78
2023-04-26T17:16:59.208Z,101101.16
2023-04-26T17:19:26.004Z,101109.16
2023-04-26T17:21:52.817Z,101123.19
2023-04-26T17:24:19.611Z,101119.81
2023-04-26T17:26:46.891Z,101108.38
2023-04-26T17:29:14.214Z,101109.44
2023-04-26T17:31:41.012Z,101114.78
2023-04-26T17:34:07.623Z,101120.31
2023-04-26T17:36:34.227Z,101121.88
2023-04-26T17:39:01.382Z,101117.56
2023-04-26T17:41:28.116Z,101118.97
2023-04-26T17:43:55.120Z,101123.44
2023-04-26T17:46:21.974Z,101124.53
2023-04-26T17:48:50.293Z,101126.13
2023-04-26T17:51:26.550Z,101124.47
2023-04-26T17:53:53.286Z,101124.06
2023-04-26T17:56:20.070Z,101119.13
2023-04-26T17:58:46.786Z,101126.25
2023-04-26T18:01:13.699Z,101122.19
2023-04-26T18:03:41.387Z,101132.31
2023-04-26T18:06:08.082Z,101126.50
2023-04-26T18:08:34.830Z,101138.19
2023-04-26T18:11:01.435Z,101127.59
2023-04-26T18:13:28.386Z,101132.19
2023-04-26T18:15:55.933Z,101135.28
2023-04-26T18:18:23.718Z,101140.63
2023-04-26T18:20:51.781Z,101136.41
2023-04-26T18:23:18.679Z,101136.72
2023-04-26T18:25:45.825Z,101142.56
2023-04-26T18:28:12.689Z,101134.53
2023-04-26T18:30:40.895Z,101141.56
2023-04-26T18:33:08.376Z,101146.84
2023-04-26T18:35:36.143Z,101147.97
2023-04-26T18:38:02.816Z,101150.00
2023-04-26T18:40:29.893Z,101153.81
2023-04-26T18:42:56.585Z,101150.38
2023-04-26T18:45:23.249Z,101150.66
2023-04-26T18:47:50.001Z,101147.25
2023-04-26T18:50:16.826Z,101149.25
2023-04-26T18:52:43.429Z,101155.38
2023-04-26T18:55:10.816Z,101156.97
2023-04-26T18:57:37.777Z,101161.94
2023-04-26T19:00:06.828Z,101157.63
2023-04-26T19:02:36.490Z,101157.28
2023-04-26T19:05:04.674Z,101168.47
2023-04-26T19:07:31.819Z,101161.38
2023-04-26T19:10:00.994Z,101167.34
2023-04-26T19:12:27.947Z,101168.47
2023-04-26T19:14:54.735Z,101173.25
2023-04-26T19:17:21.454Z,101175.38
2023-04-26T19:19:51.723Z,101186.44
2023-04-26T19:22:19.082Z,101176.38
2023-04-26T19:24:50.191Z,101176.50
2023-04-26T19:27:17.603Z,101178.53
2023-04-26T19:29:44.323Z,101181.13
2023-04-26T19:32:11.207Z,101177.97
2023-04-26T19:34:38.908Z,101178.75
2023-04-26T19:37:05.890Z,101175.34
2023-04-26T19:39:38.032Z,101183.47
2023-04-26T19:42:04.830Z,101177.91
2023-04-26T19:44:33.652Z,101175.88
2023-04-26T19:47:00.452Z,101181.06
2023-04-26T19:49:29.010Z,101174.16
2023-04-26T19:51:55.957Z,101184.69
2023-04-26T19:54:23.516Z,101184.81
2023-04-26T19:56:50.320Z,101186.28
2023-04-26T19:59:16.948Z,101187.81
2023-04-26T20:01:43.592Z,101188.06
2023-04-26T20:04:10.318Z,101186.41
2023-04-26T20:06:36.950Z,101183.03
2023-04-26T20:11:45.038Z,101185.00
2023-04-26T20:14:12.025Z,101192.75
2023-04-26T20:16:39.048Z,101182.88
2023-04-26T20:19:06.153Z,101190.56
2023-04-26T20:21:33.342Z,101186.50
2023-04-26T20:24:00.028Z,101191.06
2023-04-26T20:26:26.841Z,101187.09
2023-04-26T20:28:53.441Z,101198.34
2023-04-26T20:31:20.084Z,101199.88
2023-04-26T20:33:46.662Z,101200.09
2023-04-26T20:36:14.501Z,101196.91
2023-04-26T20:38:41.774Z,101205.63
2023-04-26T20:41:08.347Z,101195.44
2023-04-26T20:43:35.390Z,101198.88
2023-04-26T20:46:02.268Z,101200.53
2023-04-26T20:48:29.201Z,101196.22
2023-04-26T20:50:57.102Z,101203.25
2023-04-26T20:53:23.835Z,101192.13
2023-04-26T20:55:53.760Z,101198.94
2023-04-26T20:58:20.841Z,101199.28
2023-04-26T21:00:51.900Z,101200.41
2023-04-26T21:03:18.775Z,101208.50
2023-04-26T21:05:45.741Z,101196.59
2023-04-26T21:08:12.553Z,101200.31
2023-04-26T21:10:39.225Z,101209.00
2023-04-26T21:13:06.198Z,101201.03
2023-04-26T21:15:33.646Z,101207.94
2023-04-26T21:18:00.261Z,101204.53
2023-04-26T21:20:27.165Z,101202.72
2023-04-26T21:22:53.962Z,101212.16
2023-04-26T21:25:20.723Z,101208.19
2023-04-26T21:27:47.663Z,101211.28
2023-04-26T21:30:14.685Z,101211.00
2023-04-26T21:32:42.042Z,101204.91
2023-04-26T21:35:10.497Z,101210.59
2023-04-26T21:37:37.973Z,101220.72
2023-04-26T21:40:05.192Z,101216.19
2023-04-26T21:42:31.790Z,101216.97
2023-04-26T21:45:01.566Z,101219.03
2023-04-26T21:47:28.297Z,101221.53
2023-04-26T21:49:55.017Z,101218.97
2023-04-26T21:52:22.181Z,101220.41
2023-04-26T21:54:49.770Z,101223.53
2023-04-26T21:57:20.218Z,101223.25
2023-04-26T21:59:46.996Z,101227.09
2023-04-26T22:02:13.898Z,101219.75
2023-04-26T22:04:40.838Z,101224.03
2023-04-26T22:07:07.894Z,101220.53
2023-04-26T22:09:34.808Z,101228.31
2023-04-26T22:12:02.739Z,101238.16
2023-04-26T22:14:29.507Z,101229.56
2023-04-26T22:16:56.536Z,101237.78
2023-04-26T22:19:23.453Z,101238.09
2023-04-26T22:21:50.502Z,101241.53
2023-04-26T22:24:17.127Z,101246.63
2023-04-26T22:26:44.135Z,101250.06
2023-04-26T22:29:12.374Z,101257.69
2023-04-26T22:31:39.451Z,101250.53
2023-04-26T22:34:06.031Z,101253.19
2023-04-26T22:36:33.164Z,101256.03
2023-04-26T22:39:00.468Z,101256.31
2023-04-26T22:41:27.252Z,101261.47
2023-04-26T22:43:54.178Z,101269.34
2023-04-26T22:46:21.274Z,101271.44
2023-04-26T22:48:48.092Z,101271.25
2023-04-26T22:51:14.816Z,101276.09
2023-04-26T22:53:41.743Z,101273.44
2023-04-26T22:56:08.629Z,101274.16
2023-04-26T22:58:35.501Z,101264.66
2023-04-26T23:01:02.516Z,101273.66
2023-04-26T23:03:29.627Z,101272.53
2023-04-26T23:05:56.582Z,101282.13
2023-04-26T23:08:23.474Z,101281.25
2023-04-26T23:10:50.155Z,101273.97
2023-04-26T23:13:16.937Z,101279.81
2023-04-26T23:15:43.791Z,101279.97
2023-04-26T23:18:10.655Z,101282.72
2023-04-26T23:20:37.411Z,101278.34
2023-04-26T23:23:04.061Z,101283.88
2023-04-26T23:25:31.090Z,101285.09
2023-04-26T23:27:58.232Z,101283.72
2023-04-26T23:30:24.827Z,101284.13
2023-04-26T23:32:51.637Z,101283.59
2023-04-26T23:35:18.657Z,101272.47
2023-04-26T23:37:45.255Z,101289.34
2023-04-26T23:40:12.413Z,101276.66
2023-04-26T23:42:39.289Z,101285.44
2023-04-26T23:45:07.908Z,101286.03
2023-04-26T23:47:34.698Z,101286.59
2023-04-26T23:50:01.477Z,101287.13
2023-04-26T23:52:28.321Z,101283.34
2023-04-26T23:54:55.112Z,101284.38
2023-04-26T23:57:22.431Z,101282.66
2023-04-26T23:59:49.205Z,101276.97
